| Date | Temp | Humidity | Rainfall | Dew Point | Wind Direction | Wind Speed | Wind Pressure | Condition | Visibility |
|---|---|---|---|---|---|---|---|---|---|
| 2025-03-16 22:57:58 | 25 | 98 | 25 | 160 | 7.6 | 1010 | Showers | 10 KM | |
| 2025-03-16 22:01:17 | 26 | 94 | 25 | 130 | 5.7 | 1010 | Heavy Showers | 2 KM | |
| 2025-03-16 21:01:01 | 28 | 89 | 26 | 300 | 5.7 | 1009 | Night Shower | 10 KM | |
| 2025-03-16 20:02:13 | 28 | 84 | 25 | 350 | 3.8 | 1009 | Night Thunderstorm | 10 KM | |
| 2025-03-16 19:04:14 | 28 | 86 | 25 | 330 | 5.7 | 1009 | Night Thunderstorm | 10 KM | |
| 2025-03-16 17:59:55 | 28 | 85 | 25 | 340 | 11.4 | 1008 | Cloudy | 10 KM | |
| 2025-03-16 16:59:37 | 28 | 84 | 0.0 | 25 | 330 | 12 | 1008 | Cloudy | 10 km |
| 2025-03-16 16:10:41 | 28 | 83 | 0.0 | 25 | 300 | 10 | 1008 | Thunderstorm | 10 km |
| 2025-03-16 15:01:11 | 29 | 75 | 0.0 | 24 | 320 | 12 | 1008 | Distant showers | 10 km |
| 2025-03-16 14:01:42 | 30 | 75 | 0.0 | 24 | 300 | 20 | 1009 | Partly Cloudy (Day) | 20 km |
| 2025-03-16 12:58:44 | 28 | 92 | 0.0 | 26 | 240 | 4.0 | 1010 | Shower Day | 10 KM |
| 2025-03-16 11:58:04 | 28 | 86 | 0.0 | 25 | 300 | 7.0 | 1011 | Shower Day | 09 KM |
| 2025-03-16 11:00:30 | 30 | 73 | 0.0 | 25 | 210 | 5.0 | 1012 | Partly Cloudy (Day) | 20 KM |
| 2025-03-16 09:57:13 | 28 | 82 | 25 | 190 | 9.5 | 1012 | Partly Cloudy (Day) | 20 KM | |
| 2025-03-16 08:58:39 | 27 | 86 | 24 | 190 | 7.6 | 1011 | Showers | 10 KM | |
| 2025-03-16 07:58:19 | 26 | 90 | 0.0 | 24 | 200 | 9.5 | 1011 | Cloudy | 10KM |
| 2025-03-16 06:59:12 | 25 | 94 | 0.0 | 24 | 220 | 7.6 | 1011 | Shower Day | 10M |
| 2025-03-16 05:58:24 | 25 | 93 | 0.0 | 24 | 250 | 5.7 | 1010 | Thunderstorm | 10KM |
| 2025-03-16 04:59:50 | 25 | 94 | 0.0 | 24 | 170 | 3.8 | 1009 | Night Thunderstorm | 10KM |
| 2025-03-16 04:00:50 | 25 | 94 | 0.0 | 24 | 250 | 5.7 | 1009 | Night Thunderstorm | 10KM |
| 2025-03-16 03:06:31 | 25 | 94 | 0.0 | 24 | 220 | 7.6 | 1010 | Night Thunderstorm | 10KM |
| 2025-03-16 02:03:05 | 25 | 93 | 24 | 160 | 5.7 | 1010 | Night Thunderstorm | 10KM | |
| 2025-03-16 01:01:42 | 26 | 92 | 24 | 190 | 11.4 | 1011 | Thundershowers | 09KM | |
| 2025-03-15 23:59:37 | 27 | 94 | 26 | 200 | 7.6 | 1011 | Fair | 10KM | |
| 2025-03-15 23:02:34 | 28 | 92 | 26 | 140 | 1.9 | 1011 | Rain | 10KM |